Time;durP1;ratioP1;P1;durP2;ratioP2;P2;SDS_P1;SDS_P2;PMS_P1;PMS_P2;Temp;Humidity;BMP_temperature;BMP_pressure;BME280_temperature;BME280_humidity;BME280_pressure;Samples;Min_cycle;Max_cycle;Signal;HPM_P1;HPM_P2
2022/09/30 00:00:27;;;;;;;8.02;4.80;;;4.30;99.90;;;;;;7350079;32;20229;-63
2022/09/30 00:04:28;;;;;;;15.38;5.40;;;4.20;99.90;;;;;;7351806;32;20231;-63
2022/09/30 00:08:30;;;;;;;7.80;4.93;;;4.10;99.90;;;;;;7346653;32;20618;-62
2022/09/30 00:12:32;;;;;;;11.15;5.03;;;4.10;99.90;;;;;;7343509;32;20563;-62
2022/09/30 00:16:42;;;;;;;10.88;6.00;;;4.10;99.90;;;;;;7352507;32;20118;-61
2022/09/30 00:20:52;;;;;;;10.80;5.03;;;4.20;99.90;;;;;;7347280;32;20149;-60
2022/09/30 00:24:59;;;;;;;6.72;4.22;;;4.10;99.90;;;;;;7355928;32;20096;-61
2022/09/30 00:29:01;;;;;;;8.40;4.82;;;4.10;99.90;;;;;;7346361;32;20212;-61
2022/09/30 00:33:03;;;;;;;9.27;4.47;;;4.10;99.90;;;;;;7347470;32;20092;-62
2022/09/30 00:37:04;;;;;;;5.60;4.62;;;4.00;99.90;;;;;;7346499;32;20172;-65
2022/09/30 00:41:06;;;;;;;9.93;4.87;;;4.00;99.90;;;;;;7350464;32;20112;-61
2022/09/30 00:45:10;;;;;;;10.65;4.80;;;4.00;99.90;;;;;;7343772;32;20578;-61
2022/09/30 00:49:21;;;;;;;14.35;4.80;;;4.00;99.90;;;;;;7345730;32;20100;-62
2022/09/30 00:53:33;;;;;;;9.02;4.50;;;4.00;99.90;;;;;;7347975;32;20122;-62
2022/09/30 00:57:36;;;;;;;8.63;5.00;;;3.90;99.90;;;;;;7351478;32;20520;-62
2022/09/30 01:01:39;;;;;;;9.70;4.87;;;3.90;99.90;;;;;;7345418;32;20096;-61
2022/09/30 01:05:41;;;;;;;12.23;5.22;;;3.80;99.90;;;;;;7338462;32;20115;-62
2022/09/30 01:09:43;;;;;;;7.87;4.57;;;3.80;99.90;;;;;;7344925;32;20200;-63
2022/09/30 01:13:49;;;;;;;5.93;4.05;;;3.80;99.90;;;;;;7349991;32;20145;-61
2022/09/30 01:18:06;;;;;;;9.38;4.53;;;3.80;99.90;;;;;;7341599;32;20198;-62
2022/09/30 01:22:16;;;;;;;7.60;4.73;;;3.80;99.90;;;;;;7341189;32;20115;-61
2022/09/30 01:26:24;;;;;;;10.05;4.22;;;3.80;99.90;;;;;;7344241;32;20138;-62
2022/09/30 01:30:56;;;;;;;9.82;5.07;;;3.70;99.90;;;;;;7344850;32;20178;-61
2022/09/30 01:35:03;;;;;;;8.38;4.82;;;3.70;99.90;;;;;;7348872;32;20439;-61
2022/09/30 01:39:47;;;;;;;6.85;5.00;;;3.70;99.90;;;;;;7344811;32;20104;-62
2022/09/30 01:44:07;;;;;;;9.10;5.32;;;3.70;99.90;;;;;;7284324;32;20225;-61
2022/09/30 01:48:36;;;;;;;9.73;5.22;;;3.60;99.90;;;;;;7346041;32;20111;-61
2022/09/30 01:53:05;;;;;;;9.38;5.18;;;3.60;99.90;;;;;;7343049;32;20103;-62
2022/09/30 01:57:20;;;;;;;7.47;5.25;;;3.60;99.90;;;;;;7347519;32;20130;-62
2022/09/30 02:01:51;;;;;;;5.68;4.68;;;3.50;99.90;;;;;;7337536;32;20193;-61
2022/09/30 02:06:01;;;;;;;8.90;5.25;;;3.50;99.90;;;;;;7330661;32;20177;-61
2022/09/30 02:10:14;;;;;;;10.23;5.40;;;3.50;99.90;;;;;;7343883;32;20102;-62
2022/09/30 02:14:22;;;;;;;9.40;5.22;;;3.40;99.90;;;;;;7342097;32;20164;-62
2022/09/30 02:18:39;;;;;;;8.52;5.03;;;3.40;99.90;;;;;;7342248;32;20126;-62
2022/09/30 02:22:50;;;;;;;10.02;5.37;;;3.50;99.90;;;;;;7345037;32;20194;-61
2022/09/30 02:26:57;;;;;;;8.98;5.53;;;3.50;99.90;;;;;;7347069;32;20822;-62
2022/09/30 02:31:02;;;;;;;9.73;5.22;;;3.40;99.90;;;;;;7341100;32;20104;-61
2022/09/30 02:35:10;;;;;;;7.20;4.70;;;3.40;99.90;;;;;;7343869;32;20210;-64
2022/09/30 02:39:39;;;;;;;8.82;5.05;;;3.40;99.90;;;;;;7343950;32;20107;-62
2022/09/30 02:43:41;;;;;;;9.77;5.30;;;3.30;99.90;;;;;;7346822;32;20209;-62
2022/09/30 02:47:54;;;;;;;8.82;5.53;;;3.30;99.90;;;;;;7342668;32;20099;-62
2022/09/30 02:52:27;;;;;;;12.27;5.37;;;3.30;99.90;;;;;;7341974;32;20099;-62
2022/09/30 02:56:47;;;;;;;9.98;5.45;;;3.30;99.90;;;;;;7344332;32;20130;-61
2022/09/30 03:00:49;;;;;;;10.75;5.25;;;3.20;99.90;;;;;;7345794;32;20112;-62
2022/09/30 03:04:51;;;;;;;10.50;5.55;;;3.20;99.90;;;;;;7337247;32;20214;-61
2022/09/30 03:08:53;;;;;;;10.15;5.07;;;3.30;99.90;;;;;;7344272;32;20104;-61
2022/09/30 03:12:54;;;;;;;8.73;5.03;;;3.20;99.90;;;;;;7347722;32;20107;-63
2022/09/30 03:17:24;;;;;;;7.72;5.28;;;3.20;99.90;;;;;;7343973;32;20134;-61
2022/09/30 03:21:43;;;;;;;7.22;5.00;;;3.10;99.90;;;;;;7334312;32;20103;-62
2022/09/30 03:25:47;;;;;;;8.75;5.35;;;3.20;99.90;;;;;;7339172;32;20792;-62
2022/09/30 03:30:06;;;;;;;8.60;5.10;;;3.20;99.90;;;;;;7344236;32;20487;-62
2022/09/30 03:34:16;;;;;;;9.07;5.03;;;3.20;99.90;;;;;;7337610;32;20124;-62
2022/09/30 03:38:45;;;;;;;9.77;4.87;;;3.20;99.90;;;;;;7342651;32;20151;-62
2022/09/30 03:42:56;;;;;;;9.35;5.07;;;3.20;99.90;;;;;;7344293;32;20523;-61
2022/09/30 03:47:06;;;;;;;8.68;5.78;;;3.20;99.90;;;;;;7339440;32;20100;-62
2022/09/30 03:51:08;;;;;;;6.97;5.10;;;3.20;99.90;;;;;;7340259;32;20099;-61
2022/09/30 03:55:10;;;;;;;9.13;5.75;;;3.20;99.90;;;;;;7343115;32;20631;-62
2022/09/30 03:59:22;;;;;;;10.15;5.65;;;3.20;99.90;;;;;;7347206;32;20190;-62
2022/09/30 04:03:26;;;;;;;7.68;5.25;;;3.20;99.90;;;;;;7342220;32;20171;-61
2022/09/30 04:07:28;;;;;;;6.75;5.10;;;3.10;99.90;;;;;;7342865;32;20142;-61
2022/09/30 04:11:30;;;;;;;9.77;5.20;;;3.10;99.90;;;;;;7338625;32;20133;-60
2022/09/30 04:15:31;;;;;;;7.95;5.57;;;3.10;99.90;;;;;;7341628;32;20194;-65
2022/09/30 04:19:37;;;;;;;9.95;4.78;;;3.10;99.90;;;;;;7338972;32;20120;-61
2022/09/30 04:23:40;;;;;;;9.68;5.47;;;3.20;99.90;;;;;;7344601;32;20103;-61
2022/09/30 04:27:41;;;;;;;7.55;5.35;;;3.20;99.90;;;;;;7341808;32;20221;-61
2022/09/30 04:31:43;;;;;;;13.02;5.30;;;3.30;99.90;;;;;;7348108;32;20183;-62
2022/09/30 04:35:45;;;;;;;6.85;5.20;;;3.20;99.90;;;;;;7343100;32;20141;-62
2022/09/30 04:39:47;;;;;;;7.37;5.95;;;3.20;99.90;;;;;;7337864;32;20129;-61
2022/09/30 04:43:48;;;;;;;9.00;4.95;;;3.20;99.90;;;;;;7347229;32;20124;-64
2022/09/30 04:47:50;;;;;;;10.38;5.90;;;3.20;99.90;;;;;;7341627;32;20136;-61
2022/09/30 04:51:51;;;;;;;19.15;11.10;;;3.30;99.90;;;;;;7341282;32;20232;-62
2022/09/30 04:56:01;;;;;;;28.40;16.83;;;3.30;99.90;;;;;;7345206;32;20138;-62
2022/09/30 05:00:04;;;;;;;20.65;13.48;;;3.20;99.90;;;;;;7343107;32;20137;-61
2022/09/30 05:04:07;;;;;;;22.83;15.05;;;3.30;99.90;;;;;;7339689;32;20112;-63
2022/09/30 05:08:08;;;;;;;22.20;14.87;;;3.30;99.90;;;;;;7343670;32;20525;-62
2022/09/30 05:12:10;;;;;;;17.75;11.50;;;3.30;99.90;;;;;;7349734;32;20149;-64
2022/09/30 05:16:13;;;;;;;23.65;11.60;;;3.40;99.90;;;;;;7341352;32;20656;-62
2022/09/30 05:20:15;;;;;;;18.98;13.32;;;3.30;99.90;;;;;;7348335;32;20174;-63
2022/09/30 05:24:21;;;;;;;20.00;13.18;;;3.40;99.90;;;;;;7349646;32;20685;-62
2022/09/30 05:28:24;;;;;;;16.02;11.25;;;3.30;99.90;;;;;;7344134;32;20783;-61
2022/09/30 05:32:26;;;;;;;11.15;6.97;;;3.30;99.90;;;;;;7342988;32;20132;-62
2022/09/30 05:36:27;;;;;;;9.73;7.10;;;3.40;99.90;;;;;;7336946;32;20135;-64
2022/09/30 05:40:30;;;;;;;8.13;6.28;;;3.40;99.90;;;;;;7343934;32;20276;-64
2022/09/30 05:44:31;;;;;;;14.10;6.65;;;3.40;99.90;;;;;;7344234;32;20203;-63
2022/09/30 05:48:33;;;;;;;15.05;10.90;;;3.40;99.90;;;;;;7340522;32;20602;-66
2022/09/30 05:52:35;;;;;;;11.38;7.50;;;3.40;99.90;;;;;;7347824;32;20107;-65
2022/09/30 05:56:37;;;;;;;13.62;9.85;;;3.40;99.90;;;;;;7347428;32;20108;-66
2022/09/30 06:00:43;;;;;;;11.40;8.70;;;3.40;99.90;;;;;;7344888;32;20451;-65
2022/09/30 06:04:45;;;;;;;35.83;22.07;;;3.40;99.90;;;;;;7333457;32;20940;-65
2022/09/30 06:08:47;;;;;;;13.98;9.25;;;3.50;99.90;;;;;;7346396;32;20112;-64
2022/09/30 06:12:49;;;;;;;10.95;8.00;;;3.60;99.90;;;;;;7347457;32;20103;-65
2022/09/30 06:16:50;;;;;;;13.43;7.07;;;3.60;99.90;;;;;;7345491;32;20110;-65
2022/09/30 06:20:55;;;;;;;11.18;7.90;;;3.70;99.90;;;;;;7344240;32;20278;-65
2022/09/30 06:24:57;;;;;;;14.75;7.85;;;3.70;99.90;;;;;;7346435;32;20206;-64
2022/09/30 06:28:59;;;;;;;13.23;7.85;;;3.80;99.90;;;;;;7345182;32;20115;-64
2022/09/30 06:33:00;;;;;;;11.77;6.95;;;3.90;99.90;;;;;;7344024;32;20154;-65
2022/09/30 06:37:02;;;;;;;15.95;7.57;;;4.00;99.90;;;;;;7345752;32;20202;-66
2022/09/30 06:41:05;;;;;;;13.38;8.10;;;4.10;99.90;;;;;;7342349;32;20158;-65
2022/09/30 06:45:07;;;;;;;12.85;8.63;;;4.30;99.90;;;;;;7341998;32;20115;-66
2022/09/30 06:49:09;;;;;;;10.95;7.82;;;4.40;99.90;;;;;;7344855;32;20133;-65
2022/09/30 06:53:14;;;;;;;13.68;9.13;;;4.70;99.90;;;;;;7347873;32;20516;-65
2022/09/30 06:57:16;;;;;;;13.25;8.07;;;4.90;99.90;;;;;;7342903;32;20119;-65
2022/09/30 07:01:19;;;;;;;12.98;8.35;;;5.20;99.90;;;;;;7345501;32;20104;-65
2022/09/30 07:05:22;;;;;;;11.52;8.80;;;5.40;99.90;;;;;;7343710;32;20174;-65
2022/09/30 07:09:24;;;;;;;11.57;9.02;;;5.60;99.90;;;;;;7342125;32;20120;-65
2022/09/30 07:13:26;;;;;;;16.55;10.50;;;5.80;99.90;;;;;;7342418;32;20171;-65
2022/09/30 07:17:28;;;;;;;15.00;10.65;;;6.10;99.90;;;;;;7340448;32;20111;-65
2022/09/30 07:21:30;;;;;;;16.37;10.25;;;6.20;99.90;;;;;;7338839;32;20183;-64
2022/09/30 07:25:32;;;;;;;11.93;9.63;;;6.40;99.90;;;;;;7343340;32;20891;-65
2022/09/30 07:29:33;;;;;;;12.32;9.13;;;6.50;99.90;;;;;;7342494;32;20229;-65
2022/09/30 07:33:55;;;;;;;12.82;10.13;;;6.70;99.90;;;;;;7348164;32;20390;-65
2022/09/30 07:37:57;;;;;;;11.50;8.73;;;6.80;99.90;;;;;;7340591;32;20612;-65
2022/09/30 07:42:03;;;;;;;12.07;9.05;;;7.00;99.90;;;;;;7348734;32;20201;-65
2022/09/30 07:46:11;;;;;;;11.88;8.82;;;7.10;99.90;;;;;;7347916;32;20099;-65
2022/09/30 07:50:14;;;;;;;12.10;8.70;;;7.20;99.90;;;;;;7338665;32;20191;-65
2022/09/30 07:54:19;;;;;;;12.65;8.63;;;7.30;99.90;;;;;;7336590;32;20110;-65
2022/09/30 07:58:21;;;;;;;9.95;7.90;;;7.40;99.90;;;;;;7336498;32;20245;-65
2022/09/30 08:02:23;;;;;;;12.20;8.45;;;7.50;99.90;;;;;;7349269;32;20119;-65
2022/09/30 08:06:27;;;;;;;13.45;8.98;;;7.60;99.90;;;;;;7353833;32;20158;-66
2022/09/30 08:10:33;;;;;;;12.48;8.00;;;7.70;99.90;;;;;;7354106;32;20181;-65
2022/09/30 08:14:34;;;;;;;11.23;8.05;;;7.90;99.90;;;;;;7356490;32;20142;-64
2022/09/30 08:18:36;;;;;;;13.82;8.93;;;8.00;99.90;;;;;;7350833;32;20139;-65
2022/09/30 08:22:38;;;;;;;13.88;8.32;;;8.10;99.90;;;;;;7346090;32;20103;-64
2022/09/30 08:26:40;;;;;;;10.85;9.18;;;8.30;99.90;;;;;;7346970;32;20183;-65
2022/09/30 08:30:41;;;;;;;16.25;10.00;;;8.50;99.90;;;;;;7346805;32;20194;-65
2022/09/30 08:34:43;;;;;;;12.20;9.30;;;8.70;99.90;;;;;;7349207;32;20107;-65
2022/09/30 08:38:45;;;;;;;14.43;8.88;;;8.90;99.90;;;;;;7346576;32;20229;-65
2022/09/30 08:43:14;;;;;;;15.13;9.35;;;9.20;99.90;;;;;;7354121;32;20149;-65
2022/09/30 08:47:37;;;;;;;12.55;8.88;;;9.40;99.90;;;;;;7349470;32;20112;-65
2022/09/30 08:51:46;;;;;;;14.13;8.85;;;9.60;99.90;;;;;;7351521;32;20112;-65
2022/09/30 08:55:48;;;;;;;13.10;9.27;;;9.80;99.90;;;;;;7349052;32;20126;-65
2022/09/30 08:59:56;;;;;;;13.65;10.18;;;10.00;99.90;;;;;;7346185;32;20102;-65
2022/09/30 09:04:00;;;;;;;13.13;8.52;;;10.20;99.90;;;;;;7347950;32;20450;-65
2022/09/30 09:08:22;;;;;;;13.00;9.32;;;10.70;99.90;;;;;;7351696;32;20134;-64
2022/09/30 09:12:43;;;;;;;18.55;10.43;;;11.30;99.90;;;;;;7343300;32;20750;-64
2022/09/30 09:17:08;;;;;;;11.35;8.82;;;12.10;99.90;;;;;;7350894;32;20125;-64
2022/09/30 09:21:28;;;;;;;16.35;9.50;;;12.40;99.90;;;;;;7351593;32;20107;-63
2022/09/30 09:25:31;;;;;;;14.25;8.93;;;12.30;99.90;;;;;;7349724;32;20149;-64
2022/09/30 09:29:56;;;;;;;11.55;8.63;;;12.50;99.90;;;;;;7345610;32;20228;-64
2022/09/30 09:34:06;;;;;;;10.73;8.85;;;13.30;99.90;;;;;;7347681;32;20182;-65
2022/09/30 09:38:38;;;;;;;11.95;8.80;;;14.10;99.90;;;;;;7349375;32;20558;-65
2022/09/30 09:42:42;;;;;;;11.00;7.95;;;15.20;99.90;;;;;;7335176;32;20698;-65
2022/09/30 09:46:54;;;;;;;9.98;7.62;;;16.40;99.90;;;;;;7343831;32;20126;-65
2022/09/30 09:51:02;;;;;;;12.18;7.80;;;17.50;99.90;;;;;;7343823;32;20198;-66
2022/09/30 09:55:04;;;;;;;9.27;6.40;;;18.60;99.90;;;;;;7345609;32;20139;-65
2022/09/30 09:59:16;;;;;;;10.30;7.18;;;19.10;99.90;;;;;;7346930;32;20123;-66
2022/09/30 10:03:25;;;;;;;12.95;7.12;;;20.10;99.90;;;;;;7342902;32;20183;-66
2022/09/30 10:07:28;;;;;;;10.23;5.83;;;19.70;99.90;;;;;;7351004;32;20523;-64
2022/09/30 10:11:30;;;;;;;12.40;6.95;;;19.30;99.90;;;;;;7349863;32;20123;-65
2022/09/30 10:15:35;;;;;;;10.70;6.53;;;19.00;99.90;;;;;;7349296;32;20146;-66
2022/09/30 10:19:49;;;;;;;7.47;6.65;;;18.90;99.90;;;;;;7342452;32;20621;-66
2022/09/30 10:23:51;;;;;;;9.27;7.00;;;18.30;99.90;;;;;;7343114;32;20150;-66
2022/09/30 10:27:57;;;;;;;10.70;6.80;;;17.60;99.90;;;;;;7343945;32;20551;-67
2022/09/30 10:32:06;;;;;;;9.50;7.00;;;17.10;99.90;;;;;;7348448;32;20209;-65
2022/09/30 10:36:17;;;;;;;13.88;7.85;;;16.60;99.90;;;;;;7343234;32;20187;-65
2022/09/30 10:40:26;;;;;;;9.23;7.45;;;16.10;99.90;;;;;;7347956;32;20133;-66
2022/09/30 10:44:28;;;;;;;11.48;7.78;;;15.90;99.90;;;;;;7344521;32;20112;-66
2022/09/30 10:48:36;;;;;;;17.05;9.25;;;15.40;99.90;;;;;;7346293;32;20111;-66
2022/09/30 10:52:54;;;;;;;14.23;8.27;;;15.10;99.90;;;;;;7341238;32;20576;-66
2022/09/30 10:57:02;;;;;;;14.20;8.43;;;14.90;99.90;;;;;;7347512;32;20526;-66
2022/09/30 11:01:20;;;;;;;10.32;7.85;;;14.80;99.90;;;;;;7347348;32;20134;-66
2022/09/30 11:05:33;;;;;;;11.73;7.25;;;14.60;99.90;;;;;;7342808;32;20229;-66
2022/09/30 11:09:46;;;;;;;9.75;7.05;;;14.60;99.90;;;;;;7349035;32;21178;-67
2022/09/30 11:13:56;;;;;;;8.45;7.25;;;14.60;99.90;;;;;;7344360;32;20111;-67
2022/09/30 11:18:17;;;;;;;9.73;8.40;;;14.80;99.90;;;;;;7342485;32;20186;-66
2022/09/30 11:22:45;;;;;;;13.02;8.32;;;14.80;99.90;;;;;;7344237;32;20568;-65
2022/09/30 11:26:55;;;;;;;;;;;14.80;99.90;;;;;;7325766;32;20145;-66
2022/09/30 11:30:57;;;;;;;8.93;7.12;;;15.00;99.90;;;;;;7342142;32;20025;-65
2022/09/30 11:35:20;;;;;;;9.35;7.30;;;15.20;99.90;;;;;;7352553;32;20115;-65
2022/09/30 11:39:40;;;;;;;9.88;5.72;;;15.30;99.90;;;;;;7350244;32;20136;-66
2022/09/30 11:44:13;;;;;;;8.45;5.75;;;15.50;99.90;;;;;;7353691;32;20134;-65
2022/09/30 11:48:30;;;;;;;7.72;4.57;;;15.60;99.90;;;;;;7350636;32;20107;-65
2022/09/30 11:53:11;;;;;;;8.90;5.25;;;15.90;99.90;;;;;;7350021;32;20258;-66
2022/09/30 11:57:31;;;;;;;9.80;5.00;;;15.90;99.90;;;;;;7343964;32;20190;-65
2022/09/30 12:01:39;;;;;;;8.10;4.85;;;16.00;99.90;;;;;;7349715;32;20272;-65
2022/09/30 12:05:46;;;;;;;7.65;4.97;;;16.10;99.90;;;;;;7348026;32;20183;-66
2022/09/30 12:09:57;;;;;;;12.50;5.80;;;16.30;99.90;;;;;;7347788;32;20488;-66
2022/09/30 12:14:06;;;;;;;6.07;5.10;;;16.10;99.90;;;;;;7354163;32;20200;-66
2022/09/30 12:18:21;;;;;;;6.85;5.47;;;16.00;99.90;;;;;;7346794;32;20221;-66
2022/09/30 12:22:29;;;;;;;8.18;4.70;;;15.70;99.90;;;;;;7348783;32;20209;-65
2022/09/30 12:26:30;;;;;;;7.15;3.95;;;15.60;99.90;;;;;;7340145;32;20112;-65
2022/09/30 12:30:34;;;;;;;9.25;5.00;;;15.80;99.90;;;;;;7347268;32;20251;-65
2022/09/30 12:35:03;;;;;;;8.32;4.95;;;15.90;99.90;;;;;;7342126;32;20662;-65
2022/09/30 12:39:36;;;;;;;8.05;4.47;;;16.10;99.90;;;;;;7348156;32;20816;-65
2022/09/30 12:43:40;;;;;;;5.78;3.55;;;15.90;99.90;;;;;;7352732;32;20238;-65
2022/09/30 12:47:53;;;;;;;6.28;3.42;;;15.90;99.90;;;;;;7345618;32;20108;-66
2022/09/30 12:52:05;;;;;;;7.87;3.45;;;16.40;99.90;;;;;;7346648;32;21843;-65
2022/09/30 12:56:14;;;;;;;11.15;4.50;;;16.60;99.90;;;;;;7347346;32;20208;-65
2022/09/30 13:00:26;;;;;;;8.23;4.72;;;16.70;99.90;;;;;;7345948;32;20467;-64
2022/09/30 13:04:37;;;;;;;9.02;4.45;;;16.50;99.90;;;;;;7353052;32;20194;-65
2022/09/30 13:08:46;;;;;;;5.75;3.25;;;16.40;99.90;;;;;;7350193;32;20575;-65
2022/09/30 13:13:24;;;;;;;7.53;3.17;;;16.10;99.90;;;;;;7351456;32;20171;-65
2022/09/30 13:17:26;;;;;;;7.23;4.30;;;16.20;99.90;;;;;;7351080;32;20124;-65
2022/09/30 13:21:28;;;;;;;7.00;3.50;;;16.30;99.90;;;;;;7349172;32;20547;-65
2022/09/30 13:25:52;;;;;;;8.82;4.25;;;16.30;99.90;;;;;;7352467;32;20649;-65
2022/09/30 13:29:54;;;;;;;6.60;4.30;;;16.80;99.90;;;;;;7346373;32;20265;-66
2022/09/30 13:34:05;;;;;;;7.78;3.42;;;17.20;99.90;;;;;;7346659;32;20324;-58
2022/09/30 13:38:16;;;;;;;7.75;2.95;;;17.20;99.90;;;;;;7344530;32;20550;-58
2022/09/30 13:42:18;;;;;;;5.78;3.10;;;17.10;99.90;;;;;;7354928;32;20126;-57
2022/09/30 13:46:23;;;;;;;6.68;3.20;;;16.70;99.90;;;;;;7347489;32;20107;-58
2022/09/30 13:50:44;;;;;;;6.25;2.90;;;16.50;99.90;;;;;;7347893;32;20146;-59
2022/09/30 13:54:47;;;;;;;9.27;3.45;;;16.40;99.90;;;;;;7347447;32;20114;-58
2022/09/30 13:58:59;;;;;;;3.50;2.47;;;16.20;99.90;;;;;;7353682;32;20115;-58
2022/09/30 14:03:37;;;;;;;3.75;2.35;;;16.20;99.90;;;;;;7346333;32;20138;-58
2022/09/30 14:08:02;;;;;;;;;;;16.40;99.90;;;;;;7347774;32;20104;-58
2022/09/30 14:12:24;;;;;;;3.87;2.60;;;16.80;99.90;;;;;;7315271;32;20366;-58
2022/09/30 14:16:50;;;;;;;4.55;2.78;;;17.10;99.90;;;;;;7346148;32;20104;-58
2022/09/30 14:21:04;;;;;;;7.28;2.95;;;17.40;99.90;;;;;;7347224;32;20636;-58
2022/09/30 14:25:21;;;;;;;3.65;2.92;;;17.10;99.90;;;;;;7349635;32;20650;-65
2022/09/30 14:29:35;;;;;;;6.87;2.92;;;17.10;99.90;;;;;;7354653;32;20189;-65
2022/09/30 14:33:38;;;;;;;4.68;2.70;;;17.00;99.90;;;;;;7343283;32;20187;-65
2022/09/30 14:37:55;;;;;;;4.12;2.47;;;17.00;99.90;;;;;;7342771;32;20171;-65
2022/09/30 14:42:00;;;;;;;3.30;2.07;;;16.90;99.90;;;;;;7344363;32;20516;-64
2022/09/30 14:46:07;;;;;;;6.10;2.58;;;17.00;99.90;;;;;;7346703;32;20116;-64
2022/09/30 14:50:15;;;;;;;3.33;2.22;;;17.00;99.90;;;;;;7343684;32;20179;-65
2022/09/30 14:54:19;;;;;;;4.75;2.40;;;16.90;99.90;;;;;;7352451;32;20099;-65
2022/09/30 14:58:51;;;;;;;5.22;2.90;;;17.00;99.90;;;;;;7346248;32;20598;-65
2022/09/30 15:02:54;;;;;;;4.85;2.65;;;16.90;99.90;;;;;;7335299;32;20780;-67
2022/09/30 15:06:56;;;;;;;4.47;2.45;;;16.70;99.90;;;;;;7335433;32;20174;-67
2022/09/30 15:10:58;;;;;;;4.55;2.85;;;16.80;99.90;;;;;;7345102;32;20099;-66
2022/09/30 15:15:00;;;;;;;4.28;2.87;;;16.70;99.90;;;;;;7346076;32;20229;-66
2022/09/30 15:19:02;;;;;;;5.93;3.42;;;16.60;99.90;;;;;;7340924;32;20096;-66
2022/09/30 15:23:13;;;;;;;3.70;3.00;;;16.50;99.90;;;;;;7346969;32;20186;-66
2022/09/30 15:27:21;;;;;;;4.72;2.80;;;16.30;99.90;;;;;;7348297;32;20471;-67
2022/09/30 15:31:27;;;;;;;4.53;2.72;;;16.30;99.90;;;;;;7342398;32;20153;-66
2022/09/30 15:35:29;;;;;;;3.95;1.90;;;16.30;99.90;;;;;;7337551;32;20118;-67
2022/09/30 15:44:36;;;;;;;3.67;2.35;;;16.20;99.90;;;;;;7347948;32;20134;-66
2022/09/30 15:48:43;;;;;;;3.72;2.12;;;16.20;99.90;;;;;;7340117;32;20100;-66
2022/09/30 15:52:45;;;;;;;4.50;2.33;;;16.10;99.90;;;;;;7340481;32;20497;-68
2022/09/30 15:56:47;;;;;;;2.92;2.30;;;16.00;99.90;;;;;;7337456;32;20104;-68
2022/09/30 16:00:51;;;;;;;4.05;1.85;;;15.90;99.90;;;;;;7341331;32;20431;-66
2022/09/30 16:04:53;;;;;;;2.42;1.62;;;15.70;99.90;;;;;;7345060;32;20231;-65
2022/09/30 16:09:00;;;;;;;2.25;1.67;;;15.60;99.90;;;;;;7341711;32;20126;-66
2022/09/30 16:13:03;;;;;;;3.10;1.27;;;15.50;99.90;;;;;;7341712;32;20092;-65
2022/09/30 16:17:06;;;;;;;4.37;1.50;;;15.30;99.90;;;;;;7339764;32;20108;-61
2022/09/30 16:21:42;;;;;;;2.53;1.25;;;15.20;99.90;;;;;;7337947;32;20138;-66
2022/09/30 16:25:45;;;;;;;4.57;1.42;;;15.10;99.90;;;;;;7341525;32;20146;-64
2022/09/30 16:29:47;;;;;;;3.35;1.70;;;15.00;99.90;;;;;;7349737;32;20122;-67
2022/09/30 16:33:48;;;;;;;5.28;1.67;;;15.00;99.90;;;;;;7348278;32;20104;-65
2022/09/30 16:37:57;;;;;;;4.50;1.62;;;14.80;99.90;;;;;;7347655;32;20523;-66
2022/09/30 16:41:59;;;;;;;4.82;1.45;;;14.60;99.90;;;;;;7348776;32;20125;-66
2022/09/30 16:46:01;;;;;;;4.00;1.05;;;14.60;99.90;;;;;;7349714;32;20237;-66
2022/09/30 16:50:19;;;;;;;7.68;2.78;;;14.50;99.90;;;;;;7357959;32;20619;-65
2022/09/30 16:54:21;;;;;;;9.15;2.85;;;14.40;99.90;;;;;;7359865;32;20123;-65
2022/09/30 16:58:23;;;;;;;8.68;4.07;;;14.20;99.90;;;;;;7342935;32;20208;-66
2022/09/30 17:02:26;;;;;;;7.95;3.20;;;14.00;99.90;;;;;;7362934;32;20104;-66
2022/09/30 17:06:29;;;;;;;8.30;3.90;;;13.90;99.90;;;;;;7353507;32;20198;-66
2022/09/30 17:10:34;;;;;;;10.68;5.43;;;13.70;99.90;;;;;;7348586;32;20123;-66
2022/09/30 17:14:36;;;;;;;10.70;5.85;;;13.50;99.90;;;;;;7352153;32;20096;-66
2022/09/30 17:18:37;;;;;;;6.22;4.60;;;13.40;99.90;;;;;;7343099;32;20104;-65
2022/09/30 17:22:39;;;;;;;3.85;2.33;;;13.10;99.90;;;;;;7347673;32;20194;-65
2022/09/30 17:26:42;;;;;;;3.03;1.73;;;13.00;99.90;;;;;;7355462;32;20087;-64
2022/09/30 17:30:46;;;;;;;3.47;1.50;;;12.90;99.90;;;;;;7349333;32;20199;-62
2022/09/30 17:34:48;;;;;;;2.42;1.20;;;12.80;99.90;;;;;;7341961;32;20459;-65
2022/09/30 17:38:53;;;;;;;3.05;1.60;;;12.60;99.90;;;;;;7352379;32;20574;-63
2022/09/30 17:43:09;;;;;;;2.22;1.40;;;12.40;99.90;;;;;;7342669;32;20527;-63
2022/09/30 17:47:10;;;;;;;5.22;1.90;;;12.20;99.90;;;;;;7344600;32;20214;-64
2022/09/30 17:51:17;;;;;;;2.80;1.40;;;12.10;99.90;;;;;;7346254;32;20087;-64
2022/09/30 17:55:19;;;;;;;9.52;6.68;;;11.90;99.90;;;;;;7349428;32;20118;-63
2022/09/30 17:59:20;;;;;;;7.03;2.85;;;11.80;99.90;;;;;;7345299;32;20103;-62
2022/09/30 18:03:22;;;;;;;3.40;2.00;;;11.60;99.90;;;;;;7343391;32;20099;-63
2022/09/30 18:07:26;;;;;;;5.72;1.60;;;11.50;99.90;;;;;;7342517;32;20230;-61
2022/09/30 18:11:30;;;;;;;2.70;1.90;;;11.40;99.90;;;;;;7345709;32;20565;-61
2022/09/30 18:15:32;;;;;;;3.22;1.80;;;11.40;99.90;;;;;;7343968;32;20159;-62
2022/09/30 18:19:34;;;;;;;4.95;1.90;;;11.30;99.90;;;;;;7345554;32;20261;-61
2022/09/30 18:23:36;;;;;;;4.05;1.90;;;11.20;99.90;;;;;;7353736;32;20109;-62
2022/09/30 18:27:37;;;;;;;2.65;1.70;;;11.20;99.90;;;;;;7342251;32;20103;-62
2022/09/30 18:31:39;;;;;;;3.72;1.80;;;11.10;99.90;;;;;;7344688;32;20190;-62
2022/09/30 18:35:41;;;;;;;3.95;2.25;;;11.00;99.90;;;;;;7344842;32;20605;-61
2022/09/30 18:39:43;;;;;;;3.85;2.10;;;10.90;99.90;;;;;;7338611;32;20104;-62
2022/09/30 18:43:45;;;;;;;5.03;1.90;;;10.90;99.90;;;;;;7345581;32;20686;-63
2022/09/30 18:47:47;;;;;;;5.65;2.37;;;10.80;99.90;;;;;;7342835;32;20111;-63
2022/09/30 18:51:48;;;;;;;2.80;1.62;;;10.70;99.90;;;;;;7340207;32;20103;-63
2022/09/30 18:55:50;;;;;;;5.78;1.90;;;10.70;99.90;;;;;;7339762;32;20095;-63
2022/09/30 18:59:52;;;;;;;4.10;2.10;;;10.70;99.90;;;;;;7347937;32;20099;-63
2022/09/30 19:03:54;;;;;;;6.87;2.97;;;10.60;99.90;;;;;;7345686;32;20198;-62
2022/09/30 19:07:55;;;;;;;5.37;2.90;;;10.70;99.90;;;;;;7352029;32;20104;-63
2022/09/30 19:11:58;;;;;;;6.57;3.30;;;10.60;99.90;;;;;;7343914;32;20131;-63
2022/09/30 19:16:04;;;;;;;5.15;3.17;;;10.60;99.90;;;;;;7341778;32;20593;-63
2022/09/30 19:20:07;;;;;;;5.47;2.95;;;10.50;99.90;;;;;;7343915;32;20187;-63
2022/09/30 19:24:08;;;;;;;3.97;2.40;;;10.50;99.90;;;;;;7352333;32;20099;-63
2022/09/30 19:28:11;;;;;;;8.05;5.20;;;10.50;99.90;;;;;;7343819;32;20116;-62
2022/09/30 19:32:14;;;;;;;8.88;5.50;;;10.40;99.90;;;;;;7347910;32;20183;-62
2022/09/30 19:36:16;;;;;;;4.72;3.53;;;10.50;99.90;;;;;;7349870;32;20107;-64
2022/09/30 19:40:19;;;;;;;5.43;3.25;;;10.40;99.90;;;;;;7345631;32;20212;-63
2022/09/30 19:44:22;;;;;;;5.62;3.10;;;10.50;99.90;;;;;;7340633;32;20338;-63
2022/09/30 19:48:25;;;;;;;4.45;2.80;;;10.50;99.90;;;;;;7340601;32;20662;-63
2022/09/30 19:52:27;;;;;;;3.60;2.15;;;10.60;99.90;;;;;;7344832;32;20125;-63
2022/09/30 19:56:28;;;;;;;5.07;2.45;;;10.60;99.90;;;;;;7344980;32;20088;-61
2022/09/30 20:00:30;;;;;;;5.53;2.30;;;10.60;99.90;;;;;;7354087;32;20576;-61
2022/09/30 20:04:33;;;;;;;4.45;2.10;;;10.70;99.90;;;;;;7350183;32;20107;-62
2022/09/30 20:08:35;;;;;;;3.85;2.28;;;10.70;99.90;;;;;;7342145;32;20574;-62
2022/09/30 20:12:37;;;;;;;2.72;1.95;;;10.80;99.90;;;;;;7353263;32;20159;-62
2022/09/30 20:16:42;;;;;;;7.82;4.45;;;10.90;99.90;;;;;;7351466;32;20496;-61
2022/09/30 20:20:44;;;;;;;3.28;2.10;;;10.90;99.90;;;;;;7346094;32;20205;-63
2022/09/30 20:24:46;;;;;;;4.72;2.30;;;10.80;99.90;;;;;;7355204;32;20103;-63
2022/09/30 20:28:48;;;;;;;5.43;2.12;;;10.90;99.90;;;;;;7343335;32;20226;-63
2022/09/30 20:32:50;;;;;;;5.68;2.00;;;11.00;99.90;;;;;;7347673;32;20253;-62
2022/09/30 20:36:51;;;;;;;3.10;2.08;;;11.00;99.90;;;;;;7350329;32;20103;-61
2022/09/30 20:40:55;;;;;;;5.00;2.17;;;11.10;99.90;;;;;;7341531;32;20359;-62
2022/09/30 20:44:59;;;;;;;4.37;1.85;;;11.10;99.90;;;;;;7340165;32;20131;-62
2022/09/30 20:49:02;;;;;;;3.90;2.28;;;11.20;99.90;;;;;;7345616;32;20111;-62
2022/09/30 20:53:09;;;;;;;3.12;1.80;;;11.30;99.90;;;;;;7342312;32;20529;-62
2022/09/30 20:57:10;;;;;;;6.87;1.80;;;11.20;99.90;;;;;;7349416;32;20161;-63
2022/09/30 21:01:14;;;;;;;3.65;1.67;;;11.50;99.90;;;;;;7349414;32;20126;-62
2022/09/30 21:05:16;;;;;;;3.50;1.50;;;11.50;99.90;;;;;;7341956;32;20437;-62
2022/09/30 21:09:17;;;;;;;2.25;1.58;;;11.70;99.90;;;;;;7351355;32;20480;-62
2022/09/30 21:13:19;;;;;;;3.65;1.60;;;11.60;99.90;;;;;;7345335;32;20107;-63
2022/09/30 21:17:21;;;;;;;3.78;1.52;;;11.60;99.90;;;;;;7345397;32;20121;-63
2022/09/30 21:21:24;;;;;;;2.55;1.65;;;11.50;99.90;;;;;;7350851;32;20508;-63
2022/09/30 21:25:26;;;;;;;4.18;1.80;;;11.60;99.90;;;;;;7345756;32;20134;-61
2022/09/30 21:29:31;;;;;;;2.50;1.70;;;11.60;99.90;;;;;;7345119;32;20099;-62
2022/09/30 21:33:34;;;;;;;6.78;1.70;;;11.50;99.90;;;;;;7345769;32;20129;-62